Time;durP1;ratioP1;P1;durP2;ratioP2;P2;SDS_P1;SDS_P2;PMS_P1;PMS_P2;Temp;Humidity;BMP_temperature;BMP_pressure;BME280_temperature;BME280_humidity;BME280_pressure;Samples;Min_cycle;Max_cycle;Signal;HPM_P1;HPM_P2
2023/06/17 00:00:29;;;;;;;1999.90;999.90;;;;;;;15.66;100.00;97760.19;4975277;28;20033;-77
2023/06/17 00:02:55;;;;;;;1999.90;999.90;;;;;;;15.56;100.00;97747.56;4992496;28;20022;-77
2023/06/17 00:05:20;;;;;;;1999.90;999.90;;;;;;;15.57;100.00;97751.16;4992472;28;20109;-78
2023/06/17 00:07:46;;;;;;;1999.90;999.90;;;;;;;15.57;100.00;97756.66;4992443;28;20034;-78
2023/06/17 00:10:11;;;;;;;1999.90;999.90;;;;;;;15.51;100.00;97745.00;4992226;28;20029;-77
2023/06/17 00:12:37;;;;;;;1999.90;999.90;;;;;;;15.46;100.00;97742.41;4975425;28;20045;-78
2023/06/17 00:15:05;;;;;;;1999.90;999.90;;;;;;;15.45;100.00;97735.25;4986104;28;20030;-79
2023/06/17 00:17:30;;;;;;;1999.90;999.90;;;;;;;15.58;100.00;97737.00;4972733;28;20058;-78
2023/06/17 00:19:57;;;;;;;1999.90;999.90;;;;;;;15.51;100.00;97736.72;4972652;28;20066;-78
2023/06/17 00:22:25;;;;;;;1999.90;999.90;;;;;;;15.47;100.00;97741.28;4972590;28;20042;-79
2023/06/17 00:24:51;;;;;;;1999.90;999.90;;;;;;;15.43;100.00;97734.78;4972584;28;20077;-77
2023/06/17 00:27:17;;;;;;;1999.90;999.90;;;;;;;15.39;100.00;97744.88;4972774;28;20034;-77
2023/06/17 00:29:42;;;;;;;1999.90;999.90;;;;;;;15.21;100.00;97727.59;4972649;28;20030;-79
2023/06/17 00:32:07;;;;;;;1999.90;999.90;;;;;;;15.11;100.00;97729.91;4973086;28;20034;-78
2023/06/17 00:34:33;;;;;;;1999.90;999.90;;;;;;;15.12;100.00;97734.28;4959710;28;20027;-77
2023/06/17 00:36:59;;;;;;;1999.90;999.90;;;;;;;15.18;100.00;97733.78;5011303;28;20050;-79
2023/06/17 00:39:25;;;;;;;1999.90;999.90;;;;;;;15.12;100.00;97724.09;5011651;28;20037;-77
2023/06/17 00:41:50;;;;;;;1999.90;999.90;;;;;;;15.17;100.00;97736.84;4994016;28;20034;-77
2023/06/17 00:44:15;;;;;;;1999.90;999.90;;;;;;;15.12;100.00;97723.28;4994138;28;20109;-76
2023/06/17 00:46:46;;;;;;;1999.90;999.90;;;;;;;14.95;100.00;97730.44;4977523;28;20076;-77
2023/06/17 00:49:12;;;;;;;1999.90;999.90;;;;;;;14.81;100.00;97729.88;4993465;28;20140;-78
2023/06/17 00:51:38;;;;;;;1999.90;999.90;;;;;;;14.90;100.00;97727.88;4993720;28;20117;-76
2023/06/17 00:54:07;;;;;;;1999.90;999.90;;;;;;;15.02;100.00;97736.28;5012159;28;20026;-77
2023/06/17 00:56:34;;;;;;;1999.90;999.90;;;;;;;14.99;100.00;97720.41;4994950;28;20629;-76
2023/06/17 00:59:01;;;;;;;1999.90;999.90;;;;;;;14.90;100.00;97727.88;4994464;28;20030;-76
2023/06/17 01:01:26;;;;;;;1999.90;999.90;;;;;;;14.88;100.00;97723.81;5013967;28;20022;-78
2023/06/17 01:03:53;;;;;;;1999.90;999.90;;;;;;;14.99;100.00;97731.41;5013378;28;20064;-78
2023/06/17 01:06:29;;;;;;;1999.90;999.90;;;;;;;14.99;100.00;97727.84;5010483;28;20068;-78
2023/06/17 01:09:02;;;;;;;1999.90;999.90;;;;;;;14.93;100.00;97723.66;5011026;28;20029;-77
2023/06/17 01:11:30;;;;;;;1999.90;999.90;;;;;;;14.76;100.00;97716.25;4969804;28;20038;-78
2023/06/17 01:13:56;;;;;;;1999.90;999.90;;;;;;;14.75;100.00;97722.91;4990675;28;20030;-76
2023/06/17 01:16:24;;;;;;;1999.90;999.90;;;;;;;14.62;100.00;97725.84;4990792;28;20442;-78
2023/06/17 01:18:52;;;;;;;1999.90;999.90;;;;;;;14.59;100.00;97724.56;4973498;28;20491;-76
2023/06/17 01:21:18;;;;;;;1999.90;999.90;;;;;;;14.57;100.00;97718.56;4991574;28;20026;-77
2023/06/17 01:23:44;;;;;;;1999.90;999.90;;;;;;;14.52;100.00;97718.75;4994302;28;20406;-78
2023/06/17 01:26:10;;;;;;;1999.90;999.90;;;;;;;14.55;100.00;97723.59;5003763;28;20097;-78
2023/06/17 01:28:38;;;;;;;1999.90;999.90;;;;;;;14.64;100.00;97735.41;4993318;28;20074;-78
2023/06/17 01:31:04;;;;;;;1999.90;999.90;;;;;;;14.61;100.00;97718.72;4973942;28;20080;-76
2023/06/17 01:33:31;;;;;;;1999.90;999.90;;;;;;;14.58;100.00;97720.19;4990443;28;20030;-77
2023/06/17 01:36:02;;;;;;;1999.90;999.90;;;;;;;14.56;100.00;97716.16;4990720;28;20050;-79
2023/06/17 01:38:44;;;;;;;1999.90;999.90;;;;;;;14.57;100.00;97720.50;4990900;28;20105;-76
2023/06/17 01:41:29;;;;;;;1999.90;999.90;;;;;;;14.45;100.00;97722.00;4973630;28;20049;-78
2023/06/17 01:43:57;;;;;;;1999.90;999.90;;;;;;;14.43;100.00;97717.94;4991205;28;20027;-78
2023/06/17 01:46:24;;;;;;;1999.90;999.90;;;;;;;14.39;100.00;97722.47;4990952;28;20066;-76
2023/06/17 01:48:52;;;;;;;1999.90;999.90;;;;;;;14.39;100.00;97719.72;4973373;28;20068;-76
2023/06/17 01:51:19;;;;;;;1999.90;999.90;;;;;;;14.39;100.00;97711.47;4991198;28;20038;-78
2023/06/17 01:53:45;;;;;;;1999.90;999.90;;;;;;;14.40;100.00;97726.84;4973528;28;20026;-78
2023/06/17 01:56:10;;;;;;;1999.90;999.90;;;;;;;14.31;100.00;97715.84;4990910;28;20038;-78
2023/06/17 01:58:35;;;;;;;1999.90;999.90;;;;;;;14.27;100.00;97720.38;4957287;28;20037;-76
2023/06/17 02:01:01;;;;;;;1999.90;999.90;;;;;;;14.25;100.00;97716.31;4990823;28;20030;-79
2023/06/17 02:03:26;;;;;;;1999.90;999.90;;;;;;;14.28;100.00;97724.72;4991011;28;20026;-78
2023/06/17 02:05:51;;;;;;;1999.90;999.90;;;;;;;14.36;100.00;97723.13;4973560;28;20033;-77
2023/06/17 02:08:17;;;;;;;1999.90;999.90;;;;;;;14.30;100.00;97727.16;4990558;28;20027;-76
2023/06/17 02:10:42;;;;;;;1999.90;999.90;;;;;;;14.21;100.00;97731.84;4990794;28;20161;-77
2023/06/17 02:13:08;;;;;;;1999.90;999.90;;;;;;;14.22;100.00;97725.22;4990862;28;20026;-78
2023/06/17 02:15:33;;;;;;;1999.90;999.90;;;;;;;14.17;100.00;97728.94;4990921;28;20041;-77
2023/06/17 02:17:59;;;;;;;1999.90;999.90;;;;;;;14.18;100.00;97738.00;4994844;28;20034;-77
2023/06/17 02:20:25;;;;;;;1999.90;999.90;;;;;;;14.10;100.00;97734.09;4994118;28;20101;-76
2023/06/17 02:22:50;;;;;;;1999.90;999.90;;;;;;;14.06;100.00;97735.09;4994477;28;20031;-78
2023/06/17 02:25:16;;;;;;;1999.90;999.90;;;;;;;14.01;100.00;97733.31;4994574;28;20096;-77
2023/06/17 02:27:42;;;;;;;1999.90;999.90;;;;;;;14.06;100.00;97737.84;4977144;28;20030;-77
2023/06/17 02:30:09;;;;;;;1999.90;999.90;;;;;;;14.07;100.00;97734.75;4994704;28;20518;-78
2023/06/17 02:32:35;;;;;;;1999.90;999.90;;;;;;;14.08;100.00;97735.56;4993947;28;20038;-77
2023/06/17 02:35:00;;;;;;;1999.90;999.90;;;;;;;14.05;100.00;97734.28;4976440;28;20030;-77
2023/06/17 02:37:26;;;;;;;1999.90;999.90;;;;;;;13.96;100.00;97741.72;4994049;28;20045;-78
2023/06/17 02:39:51;;;;;;;1999.90;999.90;;;;;;;13.89;100.00;97736.69;4993663;28;20038;-78
2023/06/17 02:42:16;;;;;;;1999.90;999.90;;;;;;;13.81;100.00;97737.47;4994024;28;20034;-77
2023/06/17 02:44:42;;;;;;;1999.90;999.90;;;;;;;13.69;100.00;97731.81;4994510;28;20392;-77
2023/06/17 02:47:07;;;;;;;1999.90;999.90;;;;;;;13.67;100.00;97727.75;4993692;28;20061;-76
2023/06/17 02:49:32;;;;;;;1999.90;999.90;;;;;;;13.46;100.00;97719.31;4993933;28;20488;-77
2023/06/17 02:51:58;;;;;;;1999.90;999.90;;;;;;;13.43;100.00;97724.66;4993820;28;20400;-77
2023/06/17 02:54:23;;;;;;;1999.90;999.90;;;;;;;13.45;100.00;97731.44;4976841;28;20403;-77
2023/06/17 02:56:48;;;;;;;1999.90;999.90;;;;;;;13.56;100.00;97738.28;4993733;28;20046;-77
2023/06/17 02:59:15;;;;;;;1999.90;999.90;;;;;;;13.65;100.00;97739.09;4993611;28;20041;-77
2023/06/17 03:01:42;;;;;;;1999.90;999.90;;;;;;;13.63;100.00;97733.09;4993492;28;20042;-77
2023/06/17 03:04:10;;;;;;;1999.90;999.90;;;;;;;13.56;100.00;97727.28;4993635;28;20038;-75
2023/06/17 03:06:36;;;;;;;1999.90;999.90;;;;;;;13.47;100.00;97715.44;4976013;28;20038;-78
2023/06/17 03:09:05;;;;;;;1999.90;999.90;;;;;;;13.52;100.00;97729.03;4993457;28;20088;-78
2023/06/17 03:11:30;;;;;;;1999.90;999.90;;;;;;;13.51;100.00;97735.66;4984798;28;20023;-77
2023/06/17 03:13:56;;;;;;;1999.90;999.90;;;;;;;13.59;100.00;97737.63;4984531;28;20053;-78
2023/06/17 03:16:24;;;;;;;1999.90;999.90;;;;;;;13.60;100.00;97746.66;4993036;28;20073;-77
2023/06/17 03:18:50;;;;;;;1999.90;999.90;;;;;;;13.59;100.00;97739.56;4975633;28;20449;-77
2023/06/17 03:21:15;;;;;;;1999.90;999.90;;;;;;;13.61;100.00;97731.78;4973635;28;20069;-78
2023/06/17 03:23:41;;;;;;;1999.90;999.90;;;;;;;13.64;100.00;97723.72;4973475;28;20416;-78
2023/06/17 03:26:09;;;;;;;1999.90;999.90;;;;;;;13.63;100.00;97732.28;4973735;28;20030;-78
2023/06/17 03:28:35;;;;;;;1999.90;999.90;;;;;;;13.76;100.00;97732.16;4971061;28;20073;-78
2023/06/17 03:31:00;;;;;;;1999.90;999.90;;;;;;;13.92;100.00;97741.56;4992316;28;20068;-77
2023/06/17 03:33:26;;;;;;;1999.90;999.90;;;;;;;14.09;100.00;97746.25;5000752;28;20022;-78
2023/06/17 03:35:51;;;;;;;1999.90;999.90;;;;;;;14.33;100.00;97743.84;4999861;28;20046;-78
2023/06/17 03:38:17;;;;;;;1999.90;999.90;;;;;;;14.61;100.00;97755.31;4992653;28;20034;-77
2023/06/17 03:40:42;;;;;;;1999.90;999.90;;;;;;;14.77;100.00;97750.09;4992488;28;20097;-77
2023/06/17 03:43:08;;;;;;;1999.90;999.90;;;;;;;15.02;100.00;97755.56;4992659;28;20550;-78
2023/06/17 03:45:35;;;;;;;1999.90;999.90;;;;;;;15.39;100.00;97753.94;4975162;28;20033;-77
2023/06/17 03:48:00;;;;;;;1999.90;999.90;;;;;;;15.72;100.00;97758.84;4992092;28;20026;-77
2023/06/17 03:50:26;;;;;;;1999.90;999.90;;;;;;;16.03;100.00;97765.63;4975147;28;20458;-77
2023/06/17 03:52:51;;;;;;;1999.90;999.90;;;;;;;16.34;100.00;97764.41;4992325;28;20024;-77
2023/06/17 03:55:17;;;;;;;1999.90;999.90;;;;;;;16.65;100.00;97752.94;4992309;28;20034;-76
2023/06/17 03:57:42;;;;;;;1999.90;999.90;;;;;;;16.95;100.00;97759.94;4974670;28;20028;-79
2023/06/17 04:00:10;;;;;;;1999.90;999.90;;;;;;;17.28;100.00;97749.66;4974365;28;20049;-78
2023/06/17 04:02:35;;;;;;;1999.90;999.90;;;;;;;17.64;100.00;97765.47;4974688;28;20058;-77
2023/06/17 04:05:02;;;;;;;1999.90;999.90;;;;;;;17.65;100.00;97753.28;4974874;28;20499;-78
2023/06/17 04:07:28;;;;;;;1999.90;999.90;;;;;;;17.34;100.00;97753.00;5008933;28;20032;-78
2023/06/17 04:09:53;;;;;;;1999.90;999.90;;;;;;;17.10;100.00;97753.78;5011574;28;20101;-77
2023/06/17 04:12:19;;;;;;;1999.90;999.90;;;;;;;17.10;100.00;97754.56;5011350;28;20439;-77
2023/06/17 04:14:44;;;;;;;1999.90;999.90;;;;;;;17.43;100.00;97753.69;5011961;28;20076;-78
2023/06/17 04:17:10;;;;;;;1999.90;999.90;;;;;;;17.74;100.00;97761.44;5011386;28;20111;-77
2023/06/17 04:19:38;;;;;;;1999.90;999.90;;;;;;;17.74;100.00;97762.25;5011177;28;20554;-76
2023/06/17 04:22:06;;;;;;;1999.90;999.90;;;;;;;17.83;100.00;97760.19;5011117;28;20030;-76
2023/06/17 04:24:32;;;;;;;1999.90;999.90;;;;;;;17.79;100.00;97753.75;5011412;28;20399;-76
2023/06/17 04:26:57;;;;;;;1999.90;999.90;;;;;;;17.70;100.00;97755.78;5011945;28;20080;-81
2023/06/17 04:29:23;;;;;;;1999.90;999.90;;;;;;;17.52;100.00;97762.69;5012051;28;20022;-80
2023/06/17 04:31:49;;;;;;;1999.90;999.90;;;;;;;16.91;100.00;97759.84;5013311;28;20022;-80
2023/06/17 04:34:26;;;;;;;1999.90;999.90;;;;;;;16.79;100.00;97759.00;4996138;28;20125;-80
2023/06/17 04:36:56;;;;;;;1999.90;999.90;;;;;;;16.70;100.00;97761.81;5011076;28;20077;-81
2023/06/17 04:39:23;;;;;;;1999.90;999.90;;;;;;;16.74;100.00;97760.00;5011266;28;20208;-80
2023/06/17 04:41:49;;;;;;;1999.90;999.90;;;;;;;16.75;100.00;97753.34;4993525;28;20060;-78
2023/06/17 04:44:15;;;;;;;1999.90;999.90;;;;;;;16.68;100.00;97749.50;5011333;28;20030;-78
2023/06/17 04:46:40;;;;;;;1999.90;999.90;;;;;;;16.71;100.00;97757.09;5011913;28;20088;-82
2023/06/17 04:49:06;;;;;;;1999.90;999.90;;;;;;;16.73;100.00;97754.84;4996737;28;20026;-80
2023/06/17 04:51:37;;;;;;;1999.90;999.90;;;;;;;16.73;100.00;97761.13;4992023;28;20058;-80
2023/06/17 04:54:04;;;;;;;1999.90;999.90;;;;;;;16.70;100.00;97756.31;4991605;28;20121;-82
2023/06/17 04:56:30;;;;;;;1999.90;999.90;;;;;;;16.62;100.00;97759.16;4991522;28;20025;-78
2023/06/17 04:58:56;;;;;;;1999.90;999.90;;;;;;;16.39;100.00;97764.19;4991199;28;20038;-78
2023/06/17 05:01:21;;;;;;;1999.90;999.90;;;;;;;15.77;100.00;97761.41;4991568;28;20176;-79
2023/06/17 05:03:46;;;;;;;1999.90;999.90;;;;;;;15.44;100.00;97758.47;4992672;28;20025;-82
2023/06/17 05:06:12;;;;;;;1999.90;999.90;;;;;;;15.38;100.00;97760.59;4997838;28;20026;-83
2023/06/17 05:08:37;;;;;;;1999.90;999.90;;;;;;;15.64;100.00;97746.72;5010902;28;20029;-80
2023/06/17 05:11:02;;;;;;;1999.90;999.90;;;;;;;15.90;100.00;97747.38;5011222;28;20014;-79
2023/06/17 05:13:28;;;;;;;1999.90;999.90;;;;;;;16.22;100.00;97761.59;5010800;28;20408;-77
2023/06/17 05:15:53;;;;;;;1999.90;999.90;;;;;;;15.94;100.00;97755.78;5010778;28;20394;-79
2023/06/17 05:18:18;;;;;;;1999.90;999.90;;;;;;;16.08;100.00;97765.41;4994142;28;20108;-80
2023/06/17 05:20:44;;;;;;;1999.90;999.90;;;;;;;16.31;100.00;97770.59;4991289;28;20034;-78
2023/06/17 05:23:09;;;;;;;1999.90;999.90;;;;;;;16.04;100.00;97772.72;4989386;28;20025;-82
2023/06/17 05:25:34;;;;;;;1999.90;999.90;;;;;;;15.82;100.00;97773.03;4993245;28;20109;-80
2023/06/17 05:28:00;;;;;;;1999.90;999.90;;;;;;;15.97;100.00;97768.91;5010837;28;20080;-81
2023/06/17 05:30:25;;;;;;;1999.90;999.90;;;;;;;16.24;100.00;97767.56;4961024;28;20014;-80
2023/06/17 05:32:50;;;;;;;1999.90;999.90;;;;;;;16.44;100.00;97764.81;4991056;28;20045;-78
2023/06/17 05:35:16;;;;;;;1999.90;999.90;;;;;;;16.70;100.00;97772.06;4981822;28;20098;-81
2023/06/17 05:37:41;;;;;;;1999.90;999.90;;;;;;;16.54;100.00;97769.94;4990665;28;20022;-77
2023/06/17 05:40:08;;;;;;;1999.90;999.90;;;;;;;16.56;100.00;97775.94;4974087;28;20031;-81
2023/06/17 05:42:33;;;;;;;1999.90;999.90;;;;;;;16.42;100.00;97777.31;4999067;28;20030;-80
2023/06/17 05:44:58;;;;;;;1999.90;999.90;;;;;;;16.71;100.00;97787.50;4992872;28;20129;-80
2023/06/17 05:47:24;;;;;;;1999.90;999.90;;;;;;;16.86;100.00;97787.66;4991891;28;20030;-82
2023/06/17 05:49:49;;;;;;;1999.90;999.90;;;;;;;17.00;100.00;97777.13;4991788;28;20030;-85
2023/06/17 05:52:14;;;;;;;1999.90;999.90;;;;;;;17.18;100.00;97788.00;4976736;28;20041;-79
2023/06/17 05:54:39;;;;;;;1999.90;999.90;;;;;;;17.30;100.00;97796.31;4995159;28;20060;-78
2023/06/17 05:57:05;;;;;;;1999.90;999.90;;;;;;;17.34;100.00;97787.00;4995445;28;20026;-79
2023/06/17 05:59:30;;;;;;;1999.90;999.90;;;;;;;17.07;100.00;97796.72;4994565;28;20026;-79
2023/06/17 06:01:55;;;;;;;1999.90;999.90;;;;;;;16.80;100.00;97794.56;4996119;28;20034;-84
2023/06/17 06:04:21;;;;;;;1999.90;999.90;;;;;;;16.74;100.00;97793.16;4998810;28;20026;-79
2023/06/17 06:06:46;;;;;;;1999.90;999.90;;;;;;;17.08;100.00;97798.34;4993450;28;20472;-79
2023/06/17 06:09:11;;;;;;;1999.90;999.90;;;;;;;17.26;100.00;97781.56;4959024;28;20069;-79
2023/06/17 06:11:37;;;;;;;1999.90;999.90;;;;;;;17.43;100.00;97778.59;4958727;28;20027;-84
2023/06/17 06:14:03;;;;;;;1999.90;999.90;;;;;;;17.58;100.00;97786.22;4975500;28;20037;-81
2023/06/17 06:16:28;;;;;;;1999.90;999.90;;;;;;;17.74;100.00;97789.13;4977016;28;20414;-81
2023/06/17 06:18:54;;;;;;;1999.90;999.90;;;;;;;17.82;100.00;97791.78;4958264;28;20121;-76
2023/06/17 06:21:19;;;;;;;1999.90;999.90;;;;;;;17.97;100.00;97796.63;4975744;28;20396;-80
2023/06/17 06:23:45;;;;;;;1999.90;999.90;;;;;;;18.05;100.00;97798.44;4958217;28;20031;-80
2023/06/17 06:26:10;;;;;;;1999.90;999.90;;;;;;;18.05;100.00;97803.97;4976295;28;20019;-78
2023/06/17 06:28:35;;;;;;;1999.90;999.90;;;;;;;17.61;100.00;97802.13;4977467;28;20104;-79
2023/06/17 06:31:01;;;;;;;1999.90;999.90;;;;;;;17.57;100.00;97792.94;4988180;28;20491;-75
2023/06/17 06:33:26;;;;;;;1999.90;999.90;;;;;;;17.79;100.00;97795.25;5008753;28;20037;-74
2023/06/17 06:35:52;;;;;;;1999.90;999.90;;;;;;;18.06;100.00;97796.50;4983387;28;20045;-76
2023/06/17 06:38:17;;;;;;;1999.90;999.90;;;;;;;18.27;100.00;97802.69;4993367;28;20026;-76
2023/06/17 06:40:42;;;;;;;1999.90;999.90;;;;;;;18.22;100.00;97799.34;4996684;28;20023;-75
2023/06/17 06:43:08;;;;;;;1999.90;999.90;;;;;;;18.11;100.00;97799.00;4994010;28;20061;-76
2023/06/17 06:45:33;;;;;;;1999.90;999.90;;;;;;;18.34;100.00;97789.06;5003244;28;20103;-75
2023/06/17 06:48:01;;;;;;;1999.90;999.90;;;;;;;18.31;100.00;97795.28;5001305;28;20037;-75
2023/06/17 06:50:26;;;;;;;1999.90;999.90;;;;;;;18.20;100.00;97786.66;4993272;28;20066;-74
2023/06/17 06:52:52;;;;;;;1999.90;999.90;;;;;;;18.52;100.00;97787.66;4983571;28;20549;-76
2023/06/17 06:55:17;;;;;;;1999.90;999.90;;;;;;;18.64;100.00;97795.91;5002522;28;20109;-75
2023/06/17 06:57:42;;;;;;;1999.90;999.90;;;;;;;18.78;100.00;97800.25;5003867;28;20478;-74
2023/06/17 07:00:09;;;;;;;1999.90;999.90;;;;;;;18.93;100.00;97803.06;5004736;28;20038;-75
2023/06/17 07:02:35;;;;;;;1999.90;999.90;;;;;;;18.54;100.00;97795.63;5006164;28;20054;-79
2023/06/17 07:05:01;;;;;;;1999.90;999.90;;;;;;;18.82;100.00;97801.97;5007502;28;20084;-77
2023/06/17 07:07:26;;;;;;;1999.90;999.90;;;;;;;19.03;100.00;97799.81;5010163;28;20034;-74
2023/06/17 07:09:51;;;;;;;1999.90;999.90;;;;;;;19.20;100.00;97807.78;5002068;28;20014;-76
2023/06/17 07:12:17;;;;;;;1999.90;999.90;;;;;;;19.32;100.00;97809.69;4984913;28;20471;-75
2023/06/17 07:14:45;;;;;;;1999.90;999.90;;;;;;;19.44;100.00;97806.88;5003769;28;20153;-76
2023/06/17 07:17:10;;;;;;;1999.90;999.90;;;;;;;19.54;100.00;97805.53;4999827;28;20026;-74
2023/06/17 07:19:36;;;;;;;1999.90;999.90;;;;;;;19.52;100.00;97808.66;5002661;28;20033;-74
2023/06/17 07:22:01;;;;;;;1999.90;999.90;;;;;;;19.50;100.00;97801.88;5003043;28;20037;-75
2023/06/17 07:24:26;;;;;;;1999.90;999.90;;;;;;;19.71;95.16;97805.19;5001083;28;20843;-76
2023/06/17 07:26:52;;;;;;;1999.90;999.90;;;;;;;19.83;91.86;97799.53;5001800;28;20110;-76
2023/06/17 07:29:17;;;;;;;1999.90;999.90;;;;;;;19.91;90.76;97806.88;5009663;28;20109;-76
2023/06/17 07:31:42;;;;;;;1999.90;999.90;;;;;;;20.01;90.07;97811.88;5012873;28;20044;-75
2023/06/17 07:34:07;;;;;;;1999.90;999.90;;;;;;;20.10;90.23;97806.94;5012753;28;20072;-75
2023/06/17 07:36:33;;;;;;;1999.90;999.90;;;;;;;20.24;89.76;97800.91;5012422;28;20050;-76
2023/06/17 07:38:58;;;;;;;1999.90;999.90;;;;;;;20.31;88.28;97795.53;5012647;28;20041;-76
2023/06/17 07:41:24;;;;;;;1999.90;999.90;;;;;;;20.34;82.83;97794.81;5012801;28;20065;-75
2023/06/17 07:43:49;;;;;;;1999.90;999.90;;;;;;;20.39;81.73;97799.28;5012631;28;20057;-77
2023/06/17 07:46:15;;;;;;;1999.90;999.90;;;;;;;20.45;83.54;97786.72;5013461;28;20052;-79
2023/06/17 07:48:41;;;;;;;1999.90;999.90;;;;;;;20.51;84.61;97785.25;5010577;28;20133;-79
2023/06/17 07:51:06;;;;;;;1999.90;999.90;;;;;;;20.72;83.29;97782.94;5002833;28;20137;-76
2023/06/17 07:53:31;;;;;;;1999.90;999.90;;;;;;;20.84;82.31;97774.44;5003188;28;20032;-77
2023/06/17 07:55:57;;;;;;;1999.90;999.90;;;;;;;21.10;79.41;97780.16;4980293;28;20384;-77
2023/06/17 07:58:22;;;;;;;1999.90;999.90;;;;;;;21.18;79.53;97778.28;4974087;28;20046;-81
2023/06/17 08:00:47;;;;;;;1999.90;999.90;;;;;;;21.70;77.22;97788.78;4989941;28;20019;-79
2023/06/17 08:03:13;;;;;;;1999.90;999.90;;;;;;;22.45;70.54;97785.19;4991240;28;20058;-79
2023/06/17 08:05:39;;;;;;;1999.90;999.90;;;;;;;23.30;70.51;97787.88;4991558;28;20026;-80
2023/06/17 08:08:04;;;;;;;1999.90;999.90;;;;;;;23.70;65.31;97792.69;4992084;28;20131;-76
2023/06/17 08:10:30;;;;;;;1999.90;999.90;;;;;;;23.96;63.59;97786.91;4975288;28;20034;-79
2023/06/17 08:12:55;;;;;;;1999.90;999.90;;;;;;;24.16;64.68;97795.06;4992886;28;20391;-80
2023/06/17 08:15:20;;;;;;;1999.90;999.90;;;;;;;24.30;63.54;97787.59;4992186;28;20030;-81
2023/06/17 08:17:48;;;;;;;1999.90;999.90;;;;;;;24.38;61.84;97785.63;5007714;28;20030;-80
2023/06/17 08:20:13;;;;;;;1999.90;999.90;;;;;;;24.43;61.87;97783.25;4974766;28;20073;-79
2023/06/17 08:22:39;;;;;;;1999.90;999.90;;;;;;;24.55;60.66;97784.94;4992548;28;20407;-76
2023/06/17 08:25:05;;;;;;;1999.90;999.90;;;;;;;24.26;58.72;97781.16;4972465;28;20776;-74
2023/06/17 08:27:30;;;;;;;1999.90;999.90;;;;;;;24.50;54.70;97777.72;4992366;28;20033;-78
2023/06/17 08:29:56;;;;;;;1999.90;999.90;;;;;;;25.00;55.34;97777.97;4996884;28;20034;-75
2023/06/17 08:32:22;;;;;;;1999.90;999.90;;;;;;;25.66;53.16;97773.75;4996424;28;20026;-73
2023/06/17 08:34:47;;;;;;;1999.90;999.90;;;;;;;25.72;53.23;97776.97;4992713;28;20038;-77
2023/06/17 08:37:12;;;;;;;1999.90;999.90;;;;;;;26.45;51.38;97773.31;4991368;28;20679;-77
2023/06/17 08:39:39;;;;;;;1999.90;999.90;;;;;;;27.24;48.12;97779.47;4991571;28;20342;-75
2023/06/17 08:42:06;;;;;;;1999.90;999.90;;;;;;;27.81;47.73;97782.75;4990789;28;20062;-78
2023/06/17 08:44:33;;;;;;;1999.90;999.90;;;;;;;28.40;44.77;97778.63;4991754;28;20019;-78
2023/06/17 08:47:02;;;;;;;1999.90;999.90;;;;;;;28.57;42.72;97783.25;4991958;28;20077;-73
2023/06/17 08:49:28;;;;;;;1999.90;999.90;;;;;;;28.82;42.18;97779.41;4990243;28;20113;-73
2023/06/17 08:51:54;;;;;;;1999.90;999.90;;;;;;;29.40;41.46;97776.25;4990948;28;20045;-76
2023/06/17 08:54:20;;;;;;;1999.90;999.90;;;;;;;28.92;40.79;97779.25;4986647;28;20454;-78
2023/06/17 08:56:46;;;;;;;1999.90;999.90;;;;;;;28.73;40.97;97767.81;4991189;28;20797;-77
2023/06/17 08:59:11;;;;;;;1999.90;999.90;;;;;;;28.85;40.53;97775.75;4991054;28;20080;-76
2023/06/17 09:01:38;;;;;;;1999.90;999.90;;;;;;;28.60;40.53;97768.34;5000446;28;20034;-76
2023/06/17 09:04:04;;;;;;;1999.90;999.90;;;;;;;29.03;40.34;97763.03;4990706;28;20104;-78
2023/06/17 09:06:30;;;;;;;1999.90;999.90;;;;;;;29.15;38.35;97778.59;4990625;28;20457;-75
2023/06/17 09:08:57;;;;;;;1999.90;999.90;;;;;;;28.93;39.37;97768.81;4976548;28;20037;-76
2023/06/17 09:11:23;;;;;;;1999.90;999.90;;;;;;;28.31;39.81;97763.44;4991173;28;20030;-76
2023/06/17 09:13:53;;;;;;;1999.90;999.90;;;;;;;29.00;40.13;97771.53;4998534;28;20037;-76
2023/06/17 09:16:34;;;;;;;1999.90;999.90;;;;;;;29.30;40.01;97762.28;4990741;28;20034;-76
2023/06/17 09:19:05;;;;;;;1999.90;999.90;;;;;;;29.16;39.79;97763.28;4962693;28;20097;-79
2023/06/17 09:21:31;;;;;;;1999.90;999.90;;;;;;;28.51;40.34;97767.22;4982723;28;20026;-77
2023/06/17 09:23:59;;;;;;;1999.90;999.90;;;;;;;27.34;41.55;97756.94;4974004;28;20129;-76
2023/06/17 09:26:38;;;;;;;1999.90;999.90;;;;;;;27.65;40.23;97757.97;4988804;28;20015;-82
2023/06/17 09:29:06;;;;;;;1999.90;999.90;;;;;;;27.27;42.03;97750.53;4989966;28;20116;-76
2023/06/17 09:31:33;;;;;;;1999.90;999.90;;;;;;;28.13;40.19;97753.13;4989965;28;20026;-74
2023/06/17 09:34:03;;;;;;;1999.90;999.90;;;;;;;28.27;38.92;97763.47;4974828;28;20392;-77
2023/06/17 09:36:28;;;;;;;1999.90;999.90;;;;;;;27.42;38.50;97752.06;4990717;28;20051;-77
2023/06/17 09:38:54;;;;;;;1999.90;999.90;;;;;;;26.56;39.42;97745.25;4989834;28;20072;-79
2023/06/17 09:41:23;;;;;;;1999.90;999.90;;;;;;;27.56;38.68;97744.38;4972361;28;20116;-76
2023/06/17 09:43:52;;;;;;;1999.90;999.90;;;;;;;27.50;37.30;97748.81;4971992;28;20038;-79
2023/06/17 09:46:25;;;;;;;1999.90;999.90;;;;;;;27.30;37.75;97749.72;4972218;28;20043;-77
2023/06/17 09:48:51;;;;;;;1999.90;999.90;;;;;;;27.65;38.85;97747.50;4982854;28;20164;-76
2023/06/17 09:51:21;;;;;;;1999.90;999.90;;;;;;;28.28;36.69;97753.81;4970798;28;20411;-78
2023/06/17 09:53:49;;;;;;;1999.90;999.90;;;;;;;27.44;36.58;97742.03;4982707;28;20473;-77
2023/06/17 09:56:15;;;;;;;1999.90;999.90;;;;;;;27.33;38.06;97740.47;4985536;28;20122;-78
2023/06/17 09:58:42;;;;;;;1999.90;999.90;;;;;;;27.85;36.42;97741.34;4997249;28;20026;-78
2023/06/17 10:01:08;;;;;;;1999.90;999.90;;;;;;;28.08;35.05;97738.72;4992745;28;20129;-78
2023/06/17 10:03:34;;;;;;;1999.90;999.90;;;;;;;28.85;34.50;97741.94;4989700;28;20027;-77
2023/06/17 10:06:05;;;;;;;1999.90;999.90;;;;;;;29.30;33.51;97746.19;4989477;28;20018;-76
2023/06/17 10:08:31;;;;;;;1999.90;999.90;;;;;;;28.97;33.47;97738.56;4989425;28;20030;-77
2023/06/17 10:11:00;;;;;;;1999.90;999.90;;;;;;;29.11;33.55;97739.16;4989111;28;20003;-76
2023/06/17 10:13:27;;;;;;;1999.90;999.90;;;;;;;28.06;34.42;97730.72;4989403;28;20109;-76
2023/06/17 10:15:55;;;;;;;1999.90;999.90;;;;;;;28.00;35.66;97731.56;4996617;28;20076;-76
2023/06/17 10:18:23;;;;;;;1999.90;999.90;;;;;;;27.16;35.88;97716.88;4993469;28;20106;-77
2023/06/17 10:20:50;;;;;;;1999.90;999.90;;;;;;;27.72;35.56;97726.19;4989242;28;20041;-75
2023/06/17 10:23:19;;;;;;;1999.90;999.90;;;;;;;27.83;34.97;97718.44;4984934;28;20065;-76
2023/06/17 10:25:45;;;;;;;1999.90;999.90;;;;;;;27.02;36.95;97723.41;4988876;28;20034;-76
2023/06/17 10:28:10;;;;;;;1999.90;999.90;;;;;;;27.33;35.68;97721.59;4989858;28;20030;-77
2023/06/17 10:30:37;;;;;;;1999.90;999.90;;;;;;;27.19;35.86;97718.88;4989935;28;20089;-78
2023/06/17 10:33:04;;;;;;;1999.90;999.90;;;;;;;27.43;35.40;97722.78;4989877;28;20542;-78
2023/06/17 10:35:50;;;;;;;1999.90;999.90;;;;;;;27.45;36.02;97720.34;4989419;28;20109;-77
2023/06/17 10:38:29;;;;;;;1999.90;999.90;;;;;;;27.25;37.29;97717.25;4991987;28;20022;-78
2023/06/17 10:40:56;;;;;;;1999.90;999.90;;;;;;;26.69;37.94;97709.09;4978457;28;20026;-79
2023/06/17 10:43:22;;;;;;;1999.90;999.90;;;;;;;26.68;37.89;97719.53;4992468;28;20030;-79
2023/06/17 10:45:56;;;;;;;1999.90;999.90;;;;;;;26.24;37.72;97710.84;4984186;28;20038;-74